• Join FlightAware (Why Join?)
  • Login
  • US Flag 
11:40AM EST


 

Airport Tracker/Info


-or-


 

Live Flight TrackerFlight Track Log ✈ EJA929 ✈ 16-Dec-2013 ✈ KBOS - KGSO

Flight Track Log - Related Links

Times and Time Zones

All times are in EST time to prevent confusion due to time zone crossing. See the EJA929 flight status page for this flight to view local times or setup timezone preferences in your user account.

Time Position Orientation Groundspeed Altitude Reporting Facility
EST Latitude Longitude Course Direction KTS MPH feet Rate Location/Type
12:17PM 42.3500 -71.0167 270° West 150 173 800  Level KA90
12:18PM 42.3500 -71.0500 270° West 168 193 2,800 4,080 Climbing KA90
12:20PM 42.2525 -71.1989 229° Southwest 227 261 12,800 3,600 Climbing Boston Center
12:21PM 42.2150 -71.2653 233° Southwest 229 264 15,300 2,460 Climbing Boston Center
12:22PM 42.1703 -71.3408 231° Southwest 265 305 18,000 2,220 Climbing Boston Center
12:23PM 42.1419 -71.4225 245° Southwest 274 315 19,900 2,100 Climbing Boston Center
12:24PM 42.0936 -71.5450 242° Southwest 295 339 22,300 2,220 Climbing Boston Center
12:25PM 42.0525 -71.6536 243° Southwest 309 356 24,400 2,160 Climbing Boston Center
12:26PM 42.0083 -71.7658 242° Southwest 323 372 26,700 2,040 Climbing Boston Center
12:27PM 41.9661 -71.8794 243° Southwest 333 383 28,600 1,860 Climbing Boston Center
12:28PM 41.9206 -71.9953 242° Southwest 345 397 30,600 1,920 Climbing Boston Center
12:29PM 41.8725 -72.1172 242° Southwest 360 414 32,600 1,680 Climbing Boston Center
12:30PM 41.8228 -72.2419 242° Southwest 374 430 34,000 660 Climbing Boston Center
12:31PM 41.7711 -72.3700 242° Southwest 385 443 34,000  Level Boston Center
12:32PM 41.7211 -72.4967 242° Southwest 386 444 34,000  Level Boston Center
12:34PM 41.6706 -72.6228 242° Southwest 384 442 34,000  Level Boston Center
12:35PM 41.6194 -72.7503 242° Southwest 388 447 34,000  Level Boston Center
12:36PM 41.5675 -72.8806 242° Southwest 395 455 34,000  Level Boston Center
12:37PM 41.5097 -73.0242 242° Southwest 391 450 34,000  Level Boston Center
12:38PM 41.4583 -73.1497 241° Southwest 389 448 34,000  Level Boston Center
12:39PM 41.4069 -73.2764 242° Southwest 389 448 34,000  Level Boston Center
12:40PM 41.3556 -73.4011 241° Southwest 388 447 34,000  Level Boston Center
12:41PM 41.3033 -73.5261 241° Southwest 389 448 34,000  Level Boston Center
12:42PM 41.2447 -73.6450 237° Southwest 387 445 34,000  Level Boston Center
12:42PM 41.2042 -73.7136 232° Southwest 389 448 34,000  Level New York Center
12:43PM 41.1386 -73.8264 232° Southwest 389 448 34,000  Level New York Center
12:44PM 41.0714 -73.9361 231° Southwest 394 453 34,000  Level New York Center
12:45PM 41.0058 -74.0486 232° Southwest 394 453 34,000  Level New York Center
12:46PM 40.9381 -74.1606 231° Southwest 394 453 34,000  Level New York Center
12:47PM 40.8658 -74.2750 230° Southwest 399 459 34,000  Level New York Center
12:48PM 40.7933 -74.3975 232° Southwest 399 459 34,000  Level New York Center
12:49PM 40.7233 -74.5086 230° Southwest 399 459 34,000  Level New York Center
12:50PM 40.6572 -74.6228 233° Southwest 399 459 34,000  Level New York Center
12:51PM 40.5956 -74.7231 231° Southwest 404 465 34,000  Level New York Center
12:52PM 40.5144 -74.8411 228° Southwest 404 465 34,000  Level New York Center
12:53PM 40.4442 -74.9408 227° Southwest 410 472 34,000  Level New York Center
12:54PM 40.3608 -75.0583 227° Southwest 404 465 34,000  Level New York Center
12:55PM 40.2839 -75.1650 227° Southwest 409 471 34,000  Level New York Center
12:56PM 40.2028 -75.2742 226° Southwest 416 479 34,000  Level New York Center
12:57PM 40.1256 -75.3831 227° Southwest 416 479 34,000  Level New York Center
12:58PM 40.0550 -75.4814 227° Southwest 416 479 34,000  Level New York Center
12:59PM 39.9708 -75.6003 227° Southwest 411 473 34,000  Level New York Center
01:00PM 39.9022 -75.6958 227° Southwest 411 473 34,000  Level New York Center
01:01PM 39.8239 -75.8228 231° Southwest 411 473 34,000  Level New York Center
01:02PM 39.7633 -75.9211 231° Southwest 406 467 34,000  Level New York Center
01:04PM 39.6417 -76.1169 231° Southwest 404 465 34,000  Level Washington Center
01:05PM 39.5661 -76.2269 228° Southwest 410 472 34,000  Level Washington Center
01:06PM 39.4925 -76.3417 230° Southwest 415 478 34,000  Level Washington Center
01:07PM 39.4208 -76.4539 230° Southwest 415 478 34,000  Level Washington Center
01:08PM 39.3472 -76.5658 230° Southwest 415 478 34,000  Level Washington Center
01:09PM 39.2775 -76.6800 232° Southwest 415 478 34,000  Level Washington Center
01:10PM 39.2056 -76.7889 230° Southwest 415 478 34,000  Level Washington Center
01:11PM 39.1356 -76.9028 232° Southwest 410 472 34,000  Level Washington Center
01:12PM 39.0614 -77.0139 229° Southwest 410 472 34,000  Level Washington Center
01:13PM 38.9767 -77.1136 222° Southwest 410 472 34,000  Level Washington Center
01:14PM 38.8878 -77.2106 220° Southwest 410 472 34,000 -60 Level Washington Center
01:15PM 38.7989 -77.3069 220° Southwest 420 483 33,900 -1,020 Descending Washington Center
01:16PM 38.7058 -77.4114 221° Southwest 432 497 32,000 -960 Descending Washington Center
01:17PM 38.6144 -77.5100 220° Southwest 437 503 32,000  Level Washington Center
01:18PM 38.5339 -77.6036 222° Southwest 437 503 32,000  Level Washington Center
01:19PM 38.4506 -77.7125 226° Southwest 432 497 32,000  Level Washington Center
01:20PM 38.3694 -77.8189 226° Southwest 432 497 32,000  Level Washington Center
01:21PM 38.2883 -77.9250 226° Southwest 427 491 32,000  Level Washington Center
01:22PM 38.2047 -78.0333 226° Southwest 422 486 32,000  Level Washington Center
01:23PM 38.1233 -78.1389 226° Southwest 422 486 32,000  Level Washington Center
01:24PM 38.0417 -78.2442 225° Southwest 422 486 32,000 -480 Level Washington Center
01:25PM 37.9622 -78.3519 227° Southwest 422 486 31,100 -1,200 Descending Washington Center
01:26PM 37.8742 -78.4592 224° Southwest 428 493 29,600 -1,620 Descending Washington Center
01:27PM 37.7794 -78.5792 225° Southwest 434 499 28,000 -1,320 Descending Washington Center
01:28PM 37.6933 -78.6886 225° Southwest 434 499 27,000 -540 Descending Washington Center
01:29PM 37.6114 -78.7903 225° Southwest 434 499 27,000 -540 Level Washington Center
01:30PM 37.5314 -78.8942 226° Southwest 425 489 26,000 -1,620 Descending Washington Center
01:31PM 37.4472 -78.9953 224° Southwest 415 478 23,800 -2,040 Descending Washington Center
01:32PM 37.3650 -79.0986 225° Southwest 420 483 22,000 -960 Descending Washington Center
01:33PM 37.2914 -79.1892 224° Southwest 420 483 22,000  Level Washington Center
01:34PM 37.2150 -79.2925 227° Southwest 420 483 22,000  Level Washington Center
01:35PM 37.1408 -79.4011 229° Southwest 414 476 22,000  Level Washington Center
01:36PM 37.0706 -79.5094 231° Southwest 409 471 22,000 -960 Level Washington Center
01:37PM 36.9961 -79.6175 229° Southwest 409 471 20,100 -2,040 Descending Washington Center
01:38PM 36.9256 -79.7256 231° Southwest 409 471 17,900 -2,220 Descending Washington Center
01:40PM 36.8016 -79.8777 225° Southwest  Level FlightAware Approximate
01:47PM 36.1383 -79.9833 180° South  Level FlightAware Approximate
01:48PM 36.1013 -79.9411 180° South  Level Estimated
01:49PM 36.1000 -79.9333 28° Northeast  Level FlightAware Approximate
01:50PM 36.1013 -79.9411 28° Northeast  Level Estimated
01:51PM 36.1000 -79.9333 28° Northeast  Level FlightAware Approximate
01:52PM 36.1013 -79.9411 28° Northeast  Level Estimated
01:53PM 36.1000 -79.9333 28° Northeast  Level FlightAware Approximate
01:54PM 36.1013 -79.9411 28° Northeast  Level Estimated
01:55PM 36.1000 -79.9333 28° Northeast  Level FlightAware Approximate